Time;durP1;ratioP1;P1;durP2;ratioP2;P2;SDS_P1;SDS_P2;PMS_P1;PMS_P2;Temp;Humidity;BMP_temperature;BMP_pressure;BME280_temperature;BME280_humidity;BME280_pressure;Samples;Min_cycle;Max_cycle;Signal;HPM_P1;HPM_P2
2022/07/03 00:00:12;;;;;;;;;;;;;;;;;;4943538;28;19914;-73
2022/07/03 00:02:39;;;;;;;;;;;;;;;;;;4930425;28;19922;-72
2022/07/03 00:05:05;;;;;;;;;;;;;;;;;;4937257;28;20410;-72
2022/07/03 00:07:33;;;;;;;;;;;;;;;;;;4942103;28;19918;-74
2022/07/03 00:10:00;;;;;;;;;;;;;;;;;;4921304;28;20511;-72
2022/07/03 00:12:26;;;;;;;;;;;;;;;;;;4920325;28;19919;-71
2022/07/03 00:14:53;;;;;;;;;;;;;;;;;;4939594;28;19934;-72
2022/07/03 00:17:19;;;;;;;;;;;;;;;;;;4916060;28;19915;-72
2022/07/03 00:19:45;;;;;;;;;;;;;;;;;;4925200;28;19915;-72
2022/07/03 00:22:12;;;;;;;;;;;;;;;;;;4898082;28;19926;-72
2022/07/03 00:24:38;;;;;;;;;;;;;;;;;;4918594;28;19915;-72
2022/07/03 00:27:06;;;;;;;;;;;;;;;;;;4923470;28;19981;-72
2022/07/03 00:29:37;;;;;;;;;;;;;;;;;;4923234;28;19926;-72
2022/07/03 00:32:07;;;;;;;;;;;;;;;;;;4916961;28;19918;-71
2022/07/03 00:34:34;;;;;;;;;;;;;;;;;;4904818;28;20183;-73
2022/07/03 00:37:01;;;;;;;;;;;;;;;;;;4904319;28;19919;-72
2022/07/03 00:39:27;;;;;;;;;;;;;;;;;;4901613;28;19925;-72
2022/07/03 00:41:54;;;;;;;;;;;;;;;;;;4927282;28;19990;-72
2022/07/03 00:44:22;;;;;;;;;;;;;;;;;;4905328;28;19915;-72
2022/07/03 00:46:49;;;;;;;;;;;;;;;;;;4906765;28;19961;-72
2022/07/03 00:49:16;;;;;;;;;;;;;;;;;;4903255;28;19964;-73
2022/07/03 00:51:42;;;;;;;;;;;;;;;;;;4876104;29;19946;-74
2022/07/03 00:54:10;;;;;;;;;;;;;;;;;;4875773;29;20051;-71
2022/07/03 00:56:40;;;;;;;;;;;;;;;;;;4877987;29;19915;-73
2022/07/03 00:59:06;;;;;;;;;;;;;;;;;;4859094;29;19975;-73
2022/07/03 01:01:34;;;;;;;;;;;;;;;;;;4876821;29;20351;-73
2022/07/03 01:04:00;;;;;;;;;;;;;;;;;;4879156;29;19922;-72
2022/07/03 01:06:27;;;;;;;;;;;;;;;;;;4875804;29;20972;-72
2022/07/03 01:08:58;;;;;;;;;;;;;;;;;;4900553;29;20487;-74
2022/07/03 01:11:24;;;;;;;;;;;;;;;;;;4893442;28;19965;-73
2022/07/03 01:13:52;;;;;;;;;;;;;;;;;;4897047;28;20154;-73
2022/07/03 01:16:20;;;;;;;;;;;;;;;;;;4877930;28;20441;-73
2022/07/03 01:18:47;;;;;;;;;;;;;;;;;;4896551;28;19951;-73
2022/07/03 01:21:13;;;;;;;;;;;;;;;;;;4894197;28;19961;-73
2022/07/03 01:23:40;;;;;;;;;;;;;;;;;;4897173;29;20029;-73
2022/07/03 01:26:06;;;;;;;;;;;;;;;;;;4892371;28;19914;-73
2022/07/03 01:28:33;;;;;;;;;;;;;;;;;;4899482;28;20068;-72
2022/07/03 01:30:59;;;;;;;;;;;;;;;;;;4883365;29;19945;-73
2022/07/03 01:33:25;;;;;;;;;;;;;;;;;;4896475;28;20509;-72
2022/07/03 01:35:51;;;;;;;;;;;;;;;;;;4899168;28;19915;-73
2022/07/03 01:38:18;;;;;;;;;;;;;;;;;;4873923;29;20033;-72
2022/07/03 01:40:45;;;;;;;;;;;;;;;;;;4897082;29;19924;-72
2022/07/03 01:43:13;;;;;;;;;;;;;;;;;;4914563;28;20924;-73
2022/07/03 01:45:40;;;;;;;;;;;;;;;;;;4931652;28;19997;-71
2022/07/03 01:48:07;;;;;;;;;;;;;;;;;;4930226;28;20132;-72
2022/07/03 01:50:33;;;;;;;;;;;;;;;;;;4914569;28;19922;-72
2022/07/03 01:53:00;;;;;;;;;;;;;;;;;;4915244;28;20449;-72
2022/07/03 01:55:28;;;;;;;;;;;;;;;;;;4910178;28;19922;-72
2022/07/03 01:57:55;;;;;;;;;;;;;;;;;;4896415;28;20401;-71
2022/07/03 02:00:22;;;;;;;;;;;;;;;;;;4890872;28;19919;-72
2022/07/03 02:02:50;;;;;;;;;;;;;;;;;;4914872;28;19921;-72
2022/07/03 02:05:16;;;;;;;;;;;;;;;;;;4856430;29;20409;-71
2022/07/03 02:07:44;;;;;;;;;;;;;;;;;;4860565;29;19960;-72
2022/07/03 02:10:10;;;;;;;;;;;;;;;;;;4856126;29;20309;-71
2022/07/03 02:12:38;;;;;;;;;;;;;;;;;;4844186;29;19919;-71
2022/07/03 02:15:05;;;;;;;;;;;;;;;;;;4860154;29;20127;-72
2022/07/03 02:17:33;;;;;;;;;;;;;;;;;;4856619;29;19926;-71
2022/07/03 02:19:59;;;;;;;;;;;;;;;;;;4859587;29;20204;-72
2022/07/03 02:22:27;;;;;;;;;;;;;;;;;;4856977;29;21797;-71
2022/07/03 02:24:53;;;;;;;;;;;;;;;;;;4859676;29;19916;-71
2022/07/03 02:27:20;;;;;;;;;;;;;;;;;;4840914;29;19922;-71
2022/07/03 02:29:47;;;;;;;;;;;;;;;;;;4858434;29;20157;-71
2022/07/03 02:32:14;;;;;;;;;;;;;;;;;;4855512;29;20581;-71
2022/07/03 02:34:42;;;;;;;;;;;;;;;;;;4859313;29;21174;-71
2022/07/03 02:37:10;;;;;;;;;;;;;;;;;;4856728;29;20070;-71
2022/07/03 02:39:37;;;;;;;;;;;;;;;;;;4843814;29;19992;-71
2022/07/03 02:42:03;;;;;;;;;;;;;;;;;;4865420;29;20011;-71
2022/07/03 02:44:31;;;;;;;;;;;;;;;;;;4872478;29;19922;-71
2022/07/03 02:46:58;;;;;;;;;;;;;;;;;;4877199;29;20034;-72
2022/07/03 02:49:26;;;;;;;;;;;;;;;;;;4870871;29;19942;-71
2022/07/03 02:51:57;;;;;;;;;;;;;;;;;;4875975;29;19915;-71
2022/07/03 02:54:23;;;;;;;;;;;;;;;;;;4874454;29;20807;-71
2022/07/03 02:56:50;;;;;;;;;;;;;;;;;;4934230;28;19913;-71
2022/07/03 02:59:35;;;;;;;;;;;;;;;;;;4938597;28;19953;-71
2022/07/03 03:02:03;;;;;;;;;;;;;;;;;;4936005;28;20398;-73
2022/07/03 03:04:29;;;;;;;;;;;;;;;;;;4935791;28;20022;-71
2022/07/03 03:06:56;;;;;;;;;;;;;;;;;;4921048;28;19914;-71
2022/07/03 03:09:22;;;;;;;;;;;;;;;;;;4936023;28;20008;-71
2022/07/03 03:11:50;;;;;;;;;;;;;;;;;;4935339;28;20568;-71
2022/07/03 03:14:17;;;;;;;;;;;;;;;;;;4933448;28;19913;-71
2022/07/03 03:16:43;;;;;;;;;;;;;;;;;;4933086;28;19918;-71
2022/07/03 03:19:10;;;;;;;;;;;;;;;;;;4933158;28;19921;-71
2022/07/03 03:21:37;;;;;;;;;;;;;;;;;;4937865;28;19921;-71
2022/07/03 03:24:05;;;;;;;;;;;;;;;;;;4920982;28;20301;-71
2022/07/03 03:26:32;;;;;;;;;;;;;;;;;;4938410;28;20029;-72
2022/07/03 03:28:59;;;;;;;;;;;;;;;;;;4934135;28;19914;-71
2022/07/03 03:31:25;;;;;;;;;;;;;;;;;;4920798;28;19921;-71
2022/07/03 03:33:53;;;;;;;;;;;;;;;;;;4922249;28;19925;-70
2022/07/03 03:36:20;;;;;;;;;;;;;;;;;;4929865;28;19914;-71
2022/07/03 03:38:47;;;;;;;;;;;;;;;;;;4938220;28;19922;-73
2022/07/03 03:41:14;;;;;;;;;;;;;;;;;;4933437;28;20630;-73
2022/07/03 03:43:40;;;;;;;;;;;;;;;;;;4922687;28;19915;-73
2022/07/03 03:46:07;;;;;;;;;;;;;;;;;;4933861;28;19920;-73
2022/07/03 03:48:34;;;;;;;;;;;;;;;;;;4921183;28;19914;-73
2022/07/03 03:51:01;;;;;;;;;;;;;;;;;;4936092;28;19918;-72
2022/07/03 03:53:28;;;;;;;;;;;;;;;;;;4935993;28;19918;-71
2022/07/03 03:55:55;;;;;;;;;;;;;;;;;;4921955;28;19914;-71
2022/07/03 03:58:21;;;;;;;;;;;;;;;;;;4933578;28;19968;-71
2022/07/03 04:00:48;;;;;;;;;;;;;;;;;;4919350;28;19922;-71
2022/07/03 04:03:16;;;;;;;;;;;;;;;;;;4934583;28;19921;-71
2022/07/03 04:05:42;;;;;;;;;;;;;;;;;;4941075;28;19949;-71
2022/07/03 04:08:10;;;;;;;;;;;;;;;;;;4937253;28;20039;-71
2022/07/03 04:10:40;;;;;;;;;;;;;;;;;;4938528;28;20631;-72
2022/07/03 04:13:07;;;;;;;;;;;;;;;;;;4935664;28;19913;-71
2022/07/03 04:15:33;;;;;;;;;;;;;;;;;;4936216;28;20081;-72
2022/07/03 04:18:00;;;;;;;;;;;;;;;;;;4939512;28;20040;-72
2022/07/03 04:20:27;;;;;;;;;;;;;;;;;;4934214;28;20675;-72
2022/07/03 04:22:53;;;;;;;;;;;;;;;;;;4922438;28;19918;-72
2022/07/03 04:25:20;;;;;;;;;;;;;;;;;;4933722;28;19937;-71
2022/07/03 04:27:46;;;;;;;;;;;;;;;;;;4935604;28;19926;-73
2022/07/03 04:30:14;;;;;;;;;;;;;;;;;;4916171;28;19914;-71
2022/07/03 04:32:40;;;;;;;;;;;;;;;;;;4936702;28;19914;-71
2022/07/03 04:35:05;;;;;;;;;;;;;;;;;;4937624;28;19954;-70
2022/07/03 04:37:33;;;;;;;;;;;;;;;;;;4939395;28;19971;-73
2022/07/03 04:39:59;;;;;;;;;;;;;;;;;;4928665;28;19918;-70
2022/07/03 04:42:26;;;;;;;;;;;;;;;;;;4933032;28;19925;-71
2022/07/03 04:44:52;;;;;;;;;;;;;;;;;;4938285;28;19974;-71
2022/07/03 04:47:20;;;;;;;;;;;;;;;;;;4933937;28;19963;-71
2022/07/03 04:49:47;;;;;;;;;;;;;;;;;;4930942;28;19918;-71
2022/07/03 04:52:14;;;;;;;;;;;;;;;;;;4935678;28;19918;-70
2022/07/03 04:55:02;;;;;;;;;;;;;;;;;;4938854;28;19918;-71
2022/07/03 04:57:29;;;;;;;;;;;;;;;;;;4937764;28;20203;-71
2022/07/03 04:59:55;;;;;;;;;;;;;;;;;;4941585;28;19918;-71
2022/07/03 05:02:21;;;;;;;;;;;;;;;;;;4918995;28;20140;-71
2022/07/03 05:04:48;;;;;;;;;;;;;;;;;;4940987;28;19913;-71
2022/07/03 05:07:16;;;;;;;;;;;;;;;;;;4921057;28;19942;-71
2022/07/03 05:09:42;;;;;;;;;;;;;;;;;;4940232;28;19921;-71
2022/07/03 05:12:11;;;;;;;;;;;;;;;;;;4938569;28;19914;-71
2022/07/03 05:14:38;;;;;;;;;;;;;;;;;;4922135;28;20492;-71
2022/07/03 05:17:04;;;;;;;;;;;;;;;;;;4938260;28;19973;-71
2022/07/03 05:19:32;;;;;;;;;;;;;;;;;;4938443;28;20473;-72
2022/07/03 05:21:59;;;;;;;;;;;;;;;;;;4926787;28;20609;-73
2022/07/03 05:24:29;;;;;;;;;;;;;;;;;;4917906;28;20568;-73
2022/07/03 05:26:59;;;;;;;;;;;;;;;;;;4918538;28;19926;-73
2022/07/03 05:29:25;;;;;;;;;;;;;;;;;;4910441;28;20899;-75
2022/07/03 05:31:52;;;;;;;;;;;;;;;;;;4915786;28;19910;-74
2022/07/03 05:34:19;;;;;;;;;;;;;;;;;;4915542;28;19914;-74
2022/07/03 05:36:45;;;;;;;;;;;;;;;;;;4898994;28;20282;-73
2022/07/03 05:41:56;;;;;;;;;;;;;;;;;;4918468;28;20444;-74
2022/07/03 05:44:22;;;;;;;;;;;;;;;;;;4913275;28;19918;-74
2022/07/03 05:46:50;;;;;;;;;;;;;;;;;;4919319;28;19978;-74
2022/07/03 05:49:16;;;;;;;;;;;;;;;;;;4909389;28;19915;-74
2022/07/03 05:51:44;;;;;;;;;;;;;;;;;;4919297;28;20009;-73
2022/07/03 05:54:11;;;;;;;;;;;;;;;;;;4919026;28;19950;-73
2022/07/03 05:56:37;;;;;;;;;;;;;;;;;;4903530;28;19918;-74
2022/07/03 05:59:04;;;;;;;;;;;;;;;;;;4919206;28;20757;-74
2022/07/03 06:01:31;;;;;;;;;;;;;;;;;;4912964;28;20419;-74
2022/07/03 06:03:58;;;;;;;;;;;;;;;;;;4904079;28;20061;-74
2022/07/03 06:06:26;;;;;;;;;;;;;;;;;;4911741;28;19918;-73
2022/07/03 06:08:53;;;;;;;;;;;;;;;;;;4918800;28;19942;-73
2022/07/03 06:11:20;;;;;;;;;;;;;;;;;;4913181;28;20471;-73
2022/07/03 06:13:46;;;;;;;;;;;;;;;;;;4911055;28;19985;-73
2022/07/03 06:16:13;;;;;;;;;;;;;;;;;;4910965;28;20359;-72
2022/07/03 06:18:40;;;;;;;;;;;;;;;;;;4916931;28;19919;-72
2022/07/03 06:21:07;;;;;;;;;;;;;;;;;;4896519;28;19996;-74
2022/07/03 06:23:35;;;;;;;;;;;;;;;;;;4914534;28;19961;-74
2022/07/03 06:26:02;;;;;;;;;;;;;;;;;;4913843;28;19921;-74
2022/07/03 06:28:28;;;;;;;;;;;;;;;;;;4915248;28;19914;-74
2022/07/03 06:30:56;;;;;;;;;;;;;;;;;;4920561;28;20013;-74
2022/07/03 06:33:22;;;;;;;;;;;;;;;;;;4913952;28;19920;-74
2022/07/03 06:35:49;;;;;;;;;;;;;;;;;;4922834;28;20253;-74
2022/07/03 06:38:15;;;;;;;;;;;;;;;;;;4914955;28;19963;-74
2022/07/03 06:40:43;;;;;;;;;;;;;;;;;;4918273;28;19921;-74
2022/07/03 06:43:10;;;;;;;;;;;;;;;;;;4916363;28;19929;-74
2022/07/03 06:45:35;;;;;;;;;;;;;;;;;;4917945;28;20543;-74
2022/07/03 06:48:01;;;;;;;;;;;;;;;;;;4924301;28;19914;-74
2022/07/03 06:50:29;;;;;;;;;;;;;;;;;;4919814;28;19985;-74
2022/07/03 06:52:56;;;;;;;;;;;;;;;;;;4922319;28;20351;-74
2022/07/03 06:55:22;;;;;;;;;;;;;;;;;;4919448;28;20263;-74
2022/07/03 06:57:49;;;;;;;;;;;;;;;;;;4923958;28;20172;-73
2022/07/03 07:00:16;;;;;;;;;;;;;;;;;;4922463;28;20087;-74
2022/07/03 07:02:43;;;;;;;;;;;;;;;;;;4921483;28;19926;-74
2022/07/03 07:05:09;;;;;;;;;;;;;;;;;;4901094;28;20009;-74
2022/07/03 07:07:35;;;;;;;;;;;;;;;;;;4903376;29;19914;-74
2022/07/03 07:10:01;;;;;;;;;;;;;;;;;;4921618;28;20109;-74
2022/07/03 07:12:28;;;;;;;;;;;;;;;;;;4916177;28;19918;-74
2022/07/03 07:14:54;;;;;;;;;;;;;;;;;;4920568;28;19915;-74
2022/07/03 07:17:20;;;;;;;;;;;;;;;;;;4915670;28;20446;-74
2022/07/03 07:19:49;;;;;;;;;;;;;;;;;;4923206;28;19914;-74
2022/07/03 07:22:16;;;;;;;;;;;;;;;;;;4926842;28;20271;-74
2022/07/03 07:24:43;;;;;;;;;;;;;;;;;;4921177;28;19917;-74
2022/07/03 07:27:11;;;;;;;;;;;;;;;;;;4932558;28;20022;-74
2022/07/03 07:29:38;;;;;;;;;;;;;;;;;;4919864;28;19920;-75
2022/07/03 07:32:04;;;;;;;;;;;;;;;;;;4940967;28;20533;-73
2022/07/03 07:34:32;;;;;;;;;;;;;;;;;;4943556;28;19989;-73
2022/07/03 07:36:59;;;;;;;;;;;;;;;;;;4939813;28;20032;-74
2022/07/03 07:39:26;;;;;;;;;;;;;;;;;;4938197;28;20436;-73
2022/07/03 07:41:55;;;;;;;;;;;;;;;;;;4905150;28;20266;-74
2022/07/03 07:44:23;;;;;;;;;;;;;;;;;;4937002;28;19949;-76
2022/07/03 07:46:50;;;;;;;;;;;;;;;;;;4935005;28;19996;-76
2022/07/03 07:49:16;;;;;;;;;;;;;;;;;;4934657;28;19921;-74
2022/07/03 07:51:42;;;;;;;;;;;;;;;;;;4941277;28;19944;-76
2022/07/03 07:54:08;;;;;;;;;;;;;;;;;;4923055;28;19930;-76
2022/07/03 07:56:35;;;;;;;;;;;;;;;;;;4917077;28;20335;-76
2022/07/03 07:59:01;;;;;;;;;;;;;;;;;;4934122;28;20238;-75
2022/07/03 08:06:56;;;;;;;;;;;;;;;;;;4932583;28;19925;-76
2022/07/03 08:09:22;;;;;;;;;;;;;;;;;;4921851;28;19918;-77
2022/07/03 08:11:49;;;;;;;;;;;;;;;;;;4920413;28;19920;-76
2022/07/03 08:14:15;;;;;;;;;;;;;;;;;;4932658;28;19921;-75
2022/07/03 08:16:42;;;;;;;;;;;;;;;;;;4919005;28;20981;-76
2022/07/03 08:19:10;;;;;;;;;;;;;;;;;;4937045;28;19915;-76
2022/07/03 08:21:39;;;;;;;;;;;;;;;;;;4938989;28;20020;-76
2022/07/03 08:24:05;;;;;;;;;;;;;;;;;;4939360;28;20364;-76
2022/07/03 08:26:32;;;;;;;;;;;;;;;;;;4940984;28;20199;-76
2022/07/03 08:28:58;;;;;;;;;;;;;;;;;;4919818;28;19918;-76
2022/07/03 08:31:26;;;;;;;;;;;;;;;;;;4917331;28;19914;-76
2022/07/03 08:33:53;;;;;;;;;;;;;;;;;;4938563;28;20105;-76
2022/07/03 08:36:20;;;;;;;;;;;;;;;;;;4938103;28;19920;-76
2022/07/03 08:38:49;;;;;;;;;;;;;;;;;;4887234;28;20649;-76
2022/07/03 08:41:15;;;;;;;;;;;;;;;;;;4919392;28;20228;-76
2022/07/03 08:43:42;;;;;;;;;;;;;;;;;;4924029;28;19936;-75
2022/07/03 08:46:09;;;;;;;;;;;;;;;;;;4939962;28;19921;-75
2022/07/03 08:48:37;;;;;;;;;;;;;;;;;;4934866;28;20513;-75
2022/07/03 08:51:03;;;;;;;;;;;;;;;;;;4932864;28;19925;-76
2022/07/03 08:53:31;;;;;;;;;;;;;;;;;;4931839;28;19917;-75
2022/07/03 08:55:57;;;;;;;;;;;;;;;;;;4927340;28;19919;-76
2022/07/03 08:58:24;;;;;;;;;;;;;;;;;;4926982;28;20183;-76
2022/07/03 09:00:53;;;;;;;;;;;;;;;;;;4904362;28;20679;-75
2022/07/03 09:03:20;;;;;;;;;;;;;;;;;;4938036;28;19925;-72
2022/07/03 09:05:48;;;;;;;;;;;;;;;;;;4927033;28;19914;-71
2022/07/03 09:08:16;;;;;;;;;;;;;;;;;;4928769;28;19926;-72
2022/07/03 09:10:42;;;;;;;;;;;;;;;;;;4931020;28;20435;-72
2022/07/03 09:13:08;;;;;;;;;;;;;;;;;;4923349;28;20032;-72
2022/07/03 09:15:36;;;;;;;;;;;;;;;;;;4912600;28;20321;-72
2022/07/03 09:18:04;;;;;;;;;;;;;;;;;;4926414;28;19997;-71
2022/07/03 09:20:31;;;;;;;;;;;;;;;;;;4918290;28;20352;-72
2022/07/03 09:23:00;;;;;;;;;;;;;;;;;;4914778;28;19937;-72
2022/07/03 09:25:28;;;;;;;;;;;;;;;;;;4929684;28;20260;-72
2022/07/03 09:27:54;;;;;;;;;;;;;;;;;;4928948;28;19918;-72
2022/07/03 09:30:22;;;;;;;;;;;;;;;;;;4923226;28;20396;-72
2022/07/03 09:32:49;;;;;;;;;;;;;;;;;;4928619;28;19941;-72
2022/07/03 09:35:15;;;;;;;;;;;;;;;;;;4873681;29;19931;-72
2022/07/03 09:37:42;;;;;;;;;;;;;;;;;;4871291;29;19942;-72
2022/07/03 09:40:10;;;;;;;;;;;;;;;;;;4875279;29;20385;-72
2022/07/03 09:42:36;;;;;;;;;;;;;;;;;;4874388;29;19923;-72
2022/07/03 09:45:03;;;;;;;;;;;;;;;;;;4877962;29;20073;-71
2022/07/03 09:47:31;;;;;;;;;;;;;;;;;;4853741;29;20480;-71
2022/07/03 09:49:57;;;;;;;;;;;;;;;;;;4876736;29;19922;-72
2022/07/03 09:52:24;;;;;;;;;;;;;;;;;;4857780;29;19980;-71
2022/07/03 09:54:50;;;;;;;;;;;;;;;;;;4881321;29;19915;-72
2022/07/03 09:57:16;;;;;;;;;;;;;;;;;;4880366;29;20032;-72
2022/07/03 09:59:44;;;;;;;;;;;;;;;;;;4879064;29;19915;-72
2022/07/03 10:02:10;;;;;;;;;;;;;;;;;;4869955;29;19919;-72
2022/07/03 10:04:38;;;;;;;;;;;;;;;;;;4874061;29;20022;-72
2022/07/03 10:07:05;;;;;;;;;;;;;;;;;;4864932;29;20281;-72
2022/07/03 10:09:32;;;;;;;;;;;;;;;;;;4878176;29;20254;-72
2022/07/03 10:11:59;;;;;;;;;;;;;;;;;;4878698;29;20420;-73
2022/07/03 10:14:26;;;;;;;;;;;;;;;;;;4877233;29;20455;-73
2022/07/03 10:16:53;;;;;;;;;;;;;;;;;;4882664;29;19911;-76
2022/07/03 10:19:20;;;;;;;;;;;;;;;;;;4856897;29;19983;-78
2022/07/03 10:21:47;;;;;;;;;;;;;;;;;;4880824;29;19959;-78
2022/07/03 10:24:13;;;;;;;;;;;;;;;;;;4876749;29;19923;-75
2022/07/03 10:26:40;;;;;;;;;;;;;;;;;;4928104;28;19969;-76
2022/07/03 10:29:06;;;;;;;;;;;;;;;;;;4915430;28;19914;-76
2022/07/03 10:31:32;;;;;;;;;;;;;;;;;;4917408;28;20233;-76
2022/07/03 10:33:58;;;;;;;;;;;;;;;;;;4899598;28;19921;-76
2022/07/03 10:36:25;;;;;;;;;;;;;;;;;;4922666;28;24572;-76
2022/07/03 10:38:52;;;;;;;;;;;;;;;;;;4920204;28;19926;-76
2022/07/03 10:46:50;;;;;;;;;;;;;;;;;;4916514;28;19987;-75
2022/07/03 10:49:18;;;;;;;;;;;;;;;;;;4914633;28;20476;-75
2022/07/03 10:51:45;;;;;;;;;;;;;;;;;;4919218;28;19915;-75
2022/07/03 10:54:11;;;;;;;;;;;;;;;;;;4874942;29;20149;-75
2022/07/03 10:56:38;;;;;;;;;;;;;;;;;;4877937;29;20394;-76
2022/07/03 10:59:06;;;;;;;;;;;;;;;;;;4878365;29;19923;-76
2022/07/03 11:01:35;;;;;;;;;;;;;;;;;;4872123;29;19977;-76
2022/07/03 11:04:03;;;;;;;;;;;;;;;;;;4878070;29;20008;-76
2022/07/03 11:06:30;;;;;;;;;;;;;;;;;;4874562;29;19918;-76
2022/07/03 11:08:57;;;;;;;;;;;;;;;;;;4867965;29;19918;-77
2022/07/03 11:14:17;;;;;;;;;;;;;;;;;;4878541;29;20261;-76
2022/07/03 11:16:43;;;;;;;;;;;;;;;;;;4865606;29;20350;-76
2022/07/03 11:19:10;;;;;;;;;;;;;;;;;;4884163;29;20421;-77
2022/07/03 11:21:37;;;;;;;;;;;;;;;;;;4879674;29;19922;-76
2022/07/03 11:24:03;;;;;;;;;;;;;;;;;;4884865;29;19927;-76
2022/07/03 11:26:32;;;;;;;;;;;;;;;;;;4878230;29;19926;-77
2022/07/03 11:28:58;;;;;;;;;;;;;;;;;;4865664;29;20602;-76
2022/07/03 11:31:25;;;;;;;;;;;;;;;;;;4848341;29;19923;-77
2022/07/03 11:33:53;;;;;;;;;;;;;;;;;;4824776;29;20291;-76
2022/07/03 11:36:21;;;;;;;;;;;;;;;;;;4844714;29;19938;-76
2022/07/03 11:38:48;;;;;;;;;;;;;;;;;;4868705;29;19923;-76
2022/07/03 11:41:16;;;;;;;;;;;;;;;;;;4865890;29;21401;-76
2022/07/03 11:43:43;;;;;;;;;;;;;;;;;;4870525;29;19915;-76
2022/07/03 11:46:10;;;;;;;;;;;;;;;;;;4896627;29;19910;-76
2022/07/03 11:48:36;;;;;;;;;;;;;;;;;;4898273;29;20005;-76
2022/07/03 11:51:03;;;;;;;;;;;;;;;;;;4900999;29;19911;-76
2022/07/03 11:53:29;;;;;;;;;;;;;;;;;;4898782;29;19966;-76
2022/07/03 11:55:58;;;;;;;;;;;;;;;;;;4903682;29;20729;-78
2022/07/03 11:58:24;;;;;;;;;;;;;;;;;;4898009;29;19947;-76
2022/07/03 12:00:51;;;;;;;;;;;;;;;;;;4908700;29;19922;-76
2022/07/03 12:03:19;;;;;;;;;;;;;;;;;;4901998;29;20434;-74
2022/07/03 12:05:45;;;;;;;;;;;;;;;;;;4894908;29;19953;-74
2022/07/03 12:08:10;;;;;;;;;;;;;;;;;;4898522;29;20005;-75
2022/07/03 12:10:38;;;;;;;;;;;;;;;;;;4903883;29;20003;-74
2022/07/03 12:13:07;;;;;;;;;;;;;;;;;;4905582;28;20339;-74
2022/07/03 12:15:33;;;;;;;;;;;;;;;;;;4923108;28;19921;-76
2022/07/03 12:18:02;;;;;;;;;;;;;;;;;;4925359;28;20369;-75
2022/07/03 12:20:30;;;;;;;;;;;;;;;;;;4920831;28;20437;-75
2022/07/03 12:22:56;;;;;;;;;;;;;;;;;;4935184;28;20320;-75
2022/07/03 12:25:25;;;;;;;;;;;;;;;;;;4939644;28;20404;-76
2022/07/03 12:27:51;;;;;;;;;;;;;;;;;;4941532;28;20333;-76
2022/07/03 12:30:17;;;;;;;;;;;;;;;;;;4924768;28;19968;-75
2022/07/03 12:32:44;;;;;;;;;;;;;;;;;;4905263;29;19918;-75
2022/07/03 12:35:10;;;;;;;;;;;;;;;;;;4899871;29;20503;-75
2022/07/03 12:37:39;;;;;;;;;;;;;;;;;;4899527;29;20034;-75
2022/07/03 12:40:05;;;;;;;;;;;;;;;;;;4901174;29;19914;-75
2022/07/03 12:42:32;;;;;;;;;;;;;;;;;;4899528;29;20022;-75
2022/07/03 12:44:58;;;;;;;;;;;;;;;;;;4901441;29;19922;-75
2022/07/03 12:47:25;;;;;;;;;;;;;;;;;;4898484;29;19973;-74
2022/07/03 12:49:52;;;;;;;;;;;;;;;;;;4902902;28;19921;-75
2022/07/03 12:52:19;;;;;;;;;;;;;;;;;;4898814;29;19918;-74
2022/07/03 12:54:46;;;;;;;;;;;;;;;;;;4898108;29;19921;-77
2022/07/03 12:59:57;;;;;;;;;;;;;;;;;;4903147;29;19921;-74
2022/07/03 13:02:24;;;;;;;;;;;;;;;;;;4904153;28;19925;-72
2022/07/03 13:04:51;;;;;;;;;;;;;;;;;;4936309;28;19918;-72
2022/07/03 13:07:18;;;;;;;;;;;;;;;;;;4936847;28;19964;-74
2022/07/03 13:09:47;;;;;;;;;;;;;;;;;;4929174;28;19913;-72
2022/07/03 13:12:14;;;;;;;;;;;;;;;;;;4930238;28;19941;-73
2022/07/03 13:14:40;;;;;;;;;;;;;;;;;;4925736;28;20044;-72
2022/07/03 13:17:09;;;;;;;;;;;;;;;;;;4942310;28;19914;-72
2022/07/03 13:19:35;;;;;;;;;;;;;;;;;;4920613;28;19914;-73
2022/07/03 13:22:27;;;;;;;;;;;;;;;;;;4937673;28;20222;-72
2022/07/03 13:24:54;;;;;;;;;;;;;;;;;;4945322;28;19941;-72
2022/07/03 13:27:20;;;;;;;;;;;;;;;;;;4919767;28;20364;-72
2022/07/03 13:29:48;;;;;;;;;;;;;;;;;;4928813;28;19920;-72
2022/07/03 13:32:14;;;;;;;;;;;;;;;;;;4947153;28;19913;-73
2022/07/03 13:34:59;;;;;;;;;;;;;;;;;;4943466;28;19970;-72
2022/07/03 13:37:25;;;;;;;;;;;;;;;;;;4926082;28;20464;-73
2022/07/03 13:39:51;;;;;;;;;;;;;;;;;;4928859;28;19914;-73
2022/07/03 13:42:19;;;;;;;;;;;;;;;;;;4919611;28;19918;-72
2022/07/03 13:44:45;;;;;;;;;;;;;;;;;;4949773;28;19914;-73
2022/07/03 13:47:12;;;;;;;;;;;;;;;;;;4925049;28;19921;-72
2022/07/03 13:49:38;;;;;;;;;;;;;;;;;;4950554;28;20486;-78
2022/07/03 13:52:06;;;;;;;;;;;;;;;;;;4944894;28;20396;-78
2022/07/03 13:54:33;;;;;;;;;;;;;;;;;;4947776;28;20032;-78
2022/07/03 13:57:02;;;;;;;;;;;;;;;;;;4923467;28;19964;-78
2022/07/03 13:59:33;;;;;;;;;;;;;;;;;;4918396;28;19914;-77
2022/07/03 14:02:00;;;;;;;;;;;;;;;;;;4920601;28;19918;-78
2022/07/03 14:04:47;;;;;;;;;;;;;;;;;;4920976;28;19998;-78
2022/07/03 14:07:14;;;;;;;;;;;;;;;;;;4925357;28;19928;-78
2022/07/03 14:09:42;;;;;;;;;;;;;;;;;;4907835;28;20130;-77
2022/07/03 14:12:08;;;;;;;;;;;;;;;;;;4903506;28;19918;-77
2022/07/03 14:14:35;;;;;;;;;;;;;;;;;;4917634;28;20821;-78
2022/07/03 14:17:02;;;;;;;;;;;;;;;;;;4914481;28;20405;-77
2022/07/03 14:19:28;;;;;;;;;;;;;;;;;;4912335;28;20419;-78
2022/07/03 14:21:56;;;;;;;;;;;;;;;;;;4903241;28;19929;-78
2022/07/03 14:24:23;;;;;;;;;;;;;;;;;;4913216;28;20341;-77
2022/07/03 14:32:35;;;;;;;;;;;;;;;;;;4943752;28;19917;-77
2022/07/03 14:35:01;;;;;;;;;;;;;;;;;;4922325;28;19926;-77
2022/07/03 14:37:27;;;;;;;;;;;;;;;;;;4936453;28;19914;-77
2022/07/03 14:39:53;;;;;;;;;;;;;;;;;;4940814;28;19914;-77
2022/07/03 14:42:21;;;;;;;;;;;;;;;;;;4923999;28;19929;-77
2022/07/03 14:44:49;;;;;;;;;;;;;;;;;;4920044;28;20349;-77
2022/07/03 14:47:15;;;;;;;;;;;;;;;;;;4931199;28;19918;-76
2022/07/03 14:49:43;;;;;;;;;;;;;;;;;;4938408;28;19918;-77
2022/07/03 14:52:09;;;;;;;;;;;;;;;;;;4933765;28;20436;-78
2022/07/03 14:54:37;;;;;;;;;;;;;;;;;;4921953;28;19926;-76
2022/07/03 14:57:03;;;;;;;;;;;;;;;;;;4911574;28;19918;-79
2022/07/03 14:59:29;;;;;;;;;;;;;;;;;;4920498;28;20462;-77
2022/07/03 15:01:56;;;;;;;;;;;;;;;;;;4937211;28;19922;-78
2022/07/03 15:04:22;;;;;;;;;;;;;;;;;;4925092;28;19914;-77
2022/07/03 15:06:49;;;;;;;;;;;;;;;;;;4937271;28;19918;-78
2022/07/03 15:09:16;;;;;;;;;;;;;;;;;;4938333;28;21164;-78
2022/07/03 15:14:27;;;;;;;;;;;;;;;;;;4938651;28;20587;-76
2022/07/03 15:16:55;;;;;;;;;;;;;;;;;;4941832;28;20349;-79
2022/07/03 15:19:21;;;;;;;;;;;;;;;;;;4926972;28;19956;-76
2022/07/03 15:21:48;;;;;;;;;;;;;;;;;;4940609;28;19921;-76
2022/07/03 15:24:15;;;;;;;;;;;;;;;;;;4944501;28;20000;-77
2022/07/03 15:26:43;;;;;;;;;;;;;;;;;;4924440;28;20237;-77
2022/07/03 15:29:10;;;;;;;;;;;;;;;;;;4943673;28;19945;-77
2022/07/03 15:31:46;;;;;;;;;;;;;;;;;;4928704;28;20366;-77
2022/07/03 15:34:13;;;;;;;;;;;;;;;;;;4944094;28;20073;-76
2022/07/03 15:36:40;;;;;;;;;;;;;;;;;;4944394;28;20248;-76
2022/07/03 15:39:07;;;;;;;;;;;;;;;;;;4926126;28;19914;-77
2022/07/03 15:41:33;;;;;;;;;;;;;;;;;;4924119;28;20650;-77
2022/07/03 15:43:59;;;;;;;;;;;;;;;;;;4921160;28;20343;-77
2022/07/03 15:46:28;;;;;;;;;;;;;;;;;;4921737;28;19953;-77
2022/07/03 15:48:55;;;;;;;;;;;;;;;;;;4944724;28;19941;-77
2022/07/03 15:51:24;;;;;;;;;;;;;;;;;;4941247;28;19914;-77
2022/07/03 15:53:52;;;;;;;;;;;;;;;;;;4948281;28;20277;-77
2022/07/03 15:56:19;;;;;;;;;;;;;;;;;;4942491;28;19921;-77
2022/07/03 15:58:47;;;;;;;;;;;;;;;;;;4927129;28;19909;-78
2022/07/03 16:03:59;;;;;;;;;;;;;;;;;;4944794;28;19984;-78
2022/07/03 16:06:26;;;;;;;;;;;;;;;;;;4923213;28;19913;-76
2022/07/03 16:08:55;;;;;;;;;;;;;;;;;;4925297;28;19918;-78
2022/07/03 16:11:21;;;;;;;;;;;;;;;;;;4926871;28;20237;-78
2022/07/03 16:13:49;;;;;;;;;;;;;;;;;;4924807;28;20654;-78
2022/07/03 16:16:22;;;;;;;;;;;;;;;;;;4941839;28;19914;-78
2022/07/03 16:18:48;;;;;;;;;;;;;;;;;;4945375;28;19918;-77
2022/07/03 16:21:19;;;;;;;;;;;;;;;;;;4919958;28;19918;-76
2022/07/03 16:23:46;;;;;;;;;;;;;;;;;;4925112;28;19933;-78
2022/07/03 16:26:13;;;;;;;;;;;;;;;;;;4917798;28;19913;-78
2022/07/03 16:28:47;;;;;;;;;;;;;;;;;;4945491;28;19914;-78
2022/07/03 16:31:15;;;;;;;;;;;;;;;;;;4919328;28;19913;-78
2022/07/03 16:33:41;;;;;;;;;;;;;;;;;;4922234;28;20406;-78
2022/07/03 16:36:07;;;;;;;;;;;;;;;;;;4919080;28;19921;-78
2022/07/03 16:38:35;;;;;;;;;;;;;;;;;;4938513;28;19937;-78
2022/07/03 16:41:04;;;;;;;;;;;;;;;;;;4931069;28;19941;-78
2022/07/03 16:43:30;;;;;;;;;;;;;;;;;;4930006;28;20369;-78
2022/07/03 16:45:56;;;;;;;;;;;;;;;;;;4933938;28;20280;-78
2022/07/03 16:48:23;;;;;;;;;;;;;;;;;;4937473;28;19917;-78
2022/07/03 16:50:50;;;;;;;;;;;;;;;;;;4906393;29;19959;-78
2022/07/03 16:53:18;;;;;;;;;;;;;;;;;;4896517;29;20246;-77
2022/07/03 16:55:46;;;;;;;;;;;;;;;;;;4911123;29;19915;-78
2022/07/03 16:58:12;;;;;;;;;;;;;;;;;;4902130;29;19922;-78
2022/07/03 17:00:38;;;;;;;;;;;;;;;;;;4907408;29;20236;-78
2022/07/03 17:03:05;;;;;;;;;;;;;;;;;;4916023;29;19925;-78
2022/07/03 17:05:32;;;;;;;;;;;;;;;;;;4916434;29;19974;-78
2022/07/03 17:08:00;;;;;;;;;;;;;;;;;;4907711;29;19914;-78
2022/07/03 17:10:28;;;;;;;;;;;;;;;;;;4906671;29;20343;-78
2022/07/03 17:12:55;;;;;;;;;;;;;;;;;;4898560;29;19914;-78
2022/07/03 17:15:25;;;;;;;;;;;;;;;;;;4895813;29;19937;-78